Terminal Aerodrome Forecast
Issued by NWS

Home | Current Version | Previous Version | Text Only | Print | Product List | Glossary On
Versions: 1 2 3 4 5 6 7 8 9 10 11 12 13 14 15 16
000
FTUS44 KHGX 201412 AAA
TAFSGR
TAF AMD
KSGR 201412Z 2014/2112 00000KT P6SM SCT009
     FM201500 14010KT P6SM SCT070 SCT250
     FM210200 15006KT P6SM SCT060 BKN120
     FM210900 VRB03KT 4SM BR SCT250
      TEMPO 2109/2112 2SM BR OVC007=

USA.gov is the U.S. government's official web portal to all federal, state and local government web resources and services.